Time;durP1;ratioP1;P1;durP2;ratioP2;P2;SDS_P1;SDS_P2;PMS_P1;PMS_P2;Temp;Humidity;BMP_temperature;BMP_pressure;BME280_temperature;BME280_humidity;BME280_pressure;Samples;Min_cycle;Max_cycle;Signal;HPM_P1;HPM_P2
2022/05/08 00:01:11;;;;;;;19.83;17.03;;;9.70;99.90;;;;;;5075994;28;20266;-86
2022/05/08 00:03:37;;;;;;;18.80;17.10;;;9.70;99.90;;;;;;5075566;28;20201;-86
2022/05/08 00:06:10;;;;;;;18.17;16.33;;;9.60;99.90;;;;;;5075703;28;20201;-86
2022/05/08 00:08:37;;;;;;;18.73;16.87;;;9.50;99.90;;;;;;5075652;28;20197;-86
2022/05/08 00:11:03;;;;;;;19.87;17.27;;;9.40;99.90;;;;;;5075677;28;20204;-86
2022/05/08 00:13:31;;;;;;;19.73;17.80;;;9.40;99.90;;;;;;5075793;28;20221;-86
2022/05/08 00:15:58;;;;;;;19.40;17.40;;;9.30;99.90;;;;;;5076088;28;20307;-87
2022/05/08 00:18:26;;;;;;;19.53;17.53;;;9.30;99.90;;;;;;5075718;28;20201;-87
2022/05/08 00:20:53;;;;;;;19.40;17.57;;;9.20;99.90;;;;;;5075606;28;20201;-87
2022/05/08 00:23:19;;;;;;;19.13;17.13;;;9.10;99.90;;;;;;5075631;28;20223;-87
2022/05/08 00:25:46;;;;;;;18.43;16.60;;;9.00;99.90;;;;;;5075869;28;20205;-87
2022/05/08 00:28:13;;;;;;;21.60;16.90;;;8.90;99.90;;;;;;5075871;28;20197;-87
2022/05/08 00:30:40;;;;;;;19.20;17.20;;;8.80;99.90;;;;;;5075645;28;20197;-87
2022/05/08 00:33:06;;;;;;;20.37;17.93;;;8.70;99.90;;;;;;5075332;28;20672;-87
2022/05/08 00:35:35;;;;;;;26.00;18.17;;;8.80;99.90;;;;;;5075571;28;20193;-87
2022/05/08 00:38:02;;;;;;;20.67;18.23;;;8.70;99.90;;;;;;5075032;28;20197;-87
2022/05/08 00:40:30;;;;;;;22.20;18.60;;;8.60;99.90;;;;;;5075423;28;20197;-87
2022/05/08 00:42:58;;;;;;;21.00;18.90;;;8.70;99.90;;;;;;5075076;28;20648;-87
2022/05/08 00:45:25;;;;;;;20.60;18.40;;;8.60;99.90;;;;;;5075189;28;20220;-87
2022/05/08 00:47:54;;;;;;;22.50;18.70;;;8.50;99.90;;;;;;5075127;28;20246;-87
2022/05/08 00:50:21;;;;;;;21.80;19.60;;;8.50;99.90;;;;;;5079542;28;20706;-87
2022/05/08 00:52:49;;;;;;;21.50;19.30;;;8.40;99.90;;;;;;5095428;28;20200;-87
2022/05/08 00:55:15;;;;;;;22.13;19.63;;;8.40;99.90;;;;;;5095367;28;20204;-88
2022/05/08 00:57:42;;;;;;;24.60;18.93;;;8.70;99.90;;;;;;5094947;28;20204;-87
2022/05/08 01:00:10;;;;;;;21.10;17.80;;;8.70;99.90;;;;;;5095360;28;20199;-87
2022/05/08 01:02:37;;;;;;;23.50;19.00;;;8.80;99.90;;;;;;5095384;28;20200;-87
2022/05/08 01:05:04;;;;;;;20.53;18.43;;;8.80;99.90;;;;;;5095000;28;20610;-87
2022/05/08 01:07:32;;;;;;;20.97;18.87;;;8.70;99.90;;;;;;5095340;28;20192;-87
2022/05/08 01:10:00;;;;;;;22.10;18.60;;;8.60;99.90;;;;;;5095422;28;20257;-87
2022/05/08 01:12:27;;;;;;;22.03;19.37;;;8.50;99.90;;;;;;5095377;28;20615;-87
2022/05/08 01:15:15;;;;;;;20.77;18.37;;;8.40;99.90;;;;;;5094671;28;20701;-87
2022/05/08 01:17:42;;;;;;;20.03;18.03;;;8.30;99.90;;;;;;5094828;28;20344;-87
2022/05/08 01:20:09;;;;;;;25.37;19.37;;;8.30;99.90;;;;;;5094925;28;20238;-88
2022/05/08 01:22:38;;;;;;;23.00;18.40;;;8.20;99.90;;;;;;5094938;28;20253;-87
2022/05/08 01:25:06;;;;;;;21.87;19.67;;;8.20;99.90;;;;;;5095149;28;20201;-87
2022/05/08 01:27:33;;;;;;;21.40;19.10;;;8.20;99.90;;;;;;5095893;28;20208;-86
2022/05/08 01:29:59;;;;;;;21.97;19.50;;;8.10;99.90;;;;;;5095479;28;20200;-87
2022/05/08 01:32:26;;;;;;;20.07;18.07;;;8.20;99.90;;;;;;5077064;28;20284;-87
2022/05/08 01:34:53;;;;;;;23.83;21.40;;;8.20;99.90;;;;;;5094794;28;20291;-87
2022/05/08 01:37:20;;;;;;;22.10;19.73;;;8.30;99.90;;;;;;5094374;28;20207;-87
2022/05/08 01:39:48;;;;;;;21.83;19.53;;;8.10;99.90;;;;;;5094647;28;20617;-87
2022/05/08 01:42:14;;;;;;;22.13;20.00;;;8.00;99.90;;;;;;5094591;28;20197;-88
2022/05/08 01:44:42;;;;;;;21.13;19.03;;;7.90;99.90;;;;;;5094475;28;20193;-88
2022/05/08 01:49:54;;;;;;;23.27;20.87;;;7.80;99.90;;;;;;5094278;28;20199;-87
2022/05/08 01:52:21;;;;;;;22.50;20.20;;;7.80;99.90;;;;;;5094404;28;20717;-88
2022/05/08 01:54:49;;;;;;;23.83;21.33;;;7.70;99.90;;;;;;5094198;28;20220;-87
2022/05/08 01:57:15;;;;;;;22.97;20.57;;;7.70;99.90;;;;;;5094194;28;20196;-88
2022/05/08 01:59:42;;;;;;;23.80;21.03;;;7.70;99.90;;;;;;5099399;28;20249;-87
2022/05/08 02:02:09;;;;;;;23.20;20.83;;;7.80;99.90;;;;;;5117260;28;20199;-86
2022/05/08 02:04:36;;;;;;;21.90;19.60;;;7.80;99.90;;;;;;5101830;28;20660;-87
2022/05/08 02:07:03;;;;;;;21.50;19.30;;;7.70;99.90;;;;;;5094601;28;20203;-87
2022/05/08 02:09:31;;;;;;;24.53;20.20;;;7.80;99.90;;;;;;5094503;28;20225;-87
2022/05/08 02:11:59;;;;;;;22.37;19.97;;;7.90;99.90;;;;;;5094117;28;20192;-87
2022/05/08 02:14:25;;;;;;;22.33;20.00;;;8.00;99.90;;;;;;5094075;28;20228;-88
2022/05/08 02:16:52;;;;;;;21.40;19.10;;;7.90;99.90;;;;;;5100238;28;20246;-88
2022/05/08 02:19:19;;;;;;;20.77;18.53;;;8.10;99.90;;;;;;5094474;28;20598;-87
2022/05/08 02:21:45;;;;;;;26.07;19.20;;;8.10;99.90;;;;;;5094130;28;20232;-87
2022/05/08 02:24:12;;;;;;;21.50;19.30;;;8.00;99.90;;;;;;5093636;28;20253;-87
2022/05/08 02:26:38;;;;;;;21.00;18.37;;;8.00;99.90;;;;;;5094081;28;20617;-88
2022/05/08 02:29:06;;;;;;;23.33;19.83;;;7.80;99.90;;;;;;5094095;28;20312;-88
2022/05/08 02:31:33;;;;;;;21.53;19.33;;;7.80;99.90;;;;;;5094024;28;20200;-88
2022/05/08 02:33:59;;;;;;;20.90;18.63;;;7.80;99.90;;;;;;5093730;28;20273;-88
2022/05/08 02:36:26;;;;;;;21.80;19.57;;;7.80;99.90;;;;;;5093925;28;20196;-87
2022/05/08 02:38:53;;;;;;;21.33;19.17;;;7.60;99.90;;;;;;5098230;28;20203;-87
2022/05/08 02:41:19;;;;;;;21.67;18.93;;;7.60;99.90;;;;;;5096186;28;20242;-88
2022/05/08 02:43:46;;;;;;;24.20;20.13;;;7.60;99.90;;;;;;5109680;28;20188;-87
2022/05/08 02:46:14;;;;;;;23.60;21.07;;;7.50;99.90;;;;;;5118237;28;20230;-87
2022/05/08 02:48:40;;;;;;;24.13;21.53;;;7.60;99.90;;;;;;5117116;28;20185;-86
2022/05/08 02:51:07;;;;;;;24.33;20.87;;;7.60;99.90;;;;;;5117675;28;20238;-87
2022/05/08 02:53:34;;;;;;;24.47;21.87;;;7.50;99.90;;;;;;5117628;28;20187;-85
2022/05/08 02:58:46;;;;;;;23.60;21.13;;;7.40;99.90;;;;;;5101835;28;20203;-88
2022/05/08 03:01:14;;;;;;;26.17;21.67;;;7.30;99.90;;;;;;5094539;28;20270;-87
2022/05/08 03:03:41;;;;;;;24.87;22.17;;;7.30;99.90;;;;;;5093977;28;20196;-87
2022/05/08 03:06:07;;;;;;;24.27;21.60;;;7.30;99.90;;;;;;5093407;28;20537;-88
2022/05/08 03:08:34;;;;;;;25.47;22.83;;;7.10;99.90;;;;;;5093182;28;20657;-87
2022/05/08 03:13:46;;;;;;;26.27;23.13;;;7.10;99.90;;;;;;5093300;28;20204;-88
2022/05/08 03:16:14;;;;;;;25.63;22.93;;;7.00;99.90;;;;;;5093109;28;20204;-88
2022/05/08 03:18:41;;;;;;;27.13;23.87;;;7.00;99.90;;;;;;5093332;28;20281;-88
2022/05/08 03:21:08;;;;;;;28.50;23.60;;;6.90;99.90;;;;;;5093444;28;20255;-89
2022/05/08 03:23:35;;;;;;;27.63;23.70;;;6.90;99.90;;;;;;5075058;28;20544;-89
2022/05/08 03:26:02;;;;;;;28.60;25.10;;;7.00;99.90;;;;;;5093325;28;20632;-89
2022/05/08 03:28:29;;;;;;;29.47;25.83;;;6.90;99.90;;;;;;5097053;28;20222;-89
2022/05/08 03:30:55;;;;;;;29.17;25.33;;;6.90;99.90;;;;;;5096636;28;20200;-89
2022/05/08 03:33:24;;;;;;;29.50;26.13;;;6.80;99.90;;;;;;5097317;28;20192;-89
2022/05/08 03:35:50;;;;;;;28.73;25.03;;;6.80;99.90;;;;;;5096940;28;20598;-89
2022/05/08 03:38:18;;;;;;;31.37;27.20;;;6.90;99.90;;;;;;5096959;28;20200;-89
2022/05/08 03:40:45;;;;;;;34.10;27.13;;;6.80;99.90;;;;;;5096745;28;20281;-89
2022/05/08 03:43:11;;;;;;;30.70;26.67;;;6.90;99.90;;;;;;5096669;28;20197;-89
2022/05/08 03:45:38;;;;;;;31.40;27.00;;;6.80;99.90;;;;;;5096777;28;20200;-89
2022/05/08 03:48:05;;;;;;;29.87;26.67;;;6.90;99.90;;;;;;5096929;28;20195;-88
2022/05/08 03:50:33;;;;;;;32.93;26.23;;;6.90;99.90;;;;;;5096742;28;20232;-89
2022/05/08 03:53:01;;;;;;;31.30;27.07;;;6.70;99.90;;;;;;5096806;28;20192;-90
2022/05/08 03:55:28;;;;;;;29.87;26.03;;;6.70;99.90;;;;;;5096087;28;20277;-89
2022/05/08 03:57:55;;;;;;;32.13;27.83;;;6.60;99.90;;;;;;5096510;28;20651;-89
2022/05/08 04:00:22;;;;;;;29.47;25.97;;;6.60;99.90;;;;;;5096279;28;20219;-89
2022/05/08 04:02:49;;;;;;;32.20;26.37;;;6.50;99.90;;;;;;5096720;28;20204;-88
2022/05/08 04:05:16;;;;;;;30.90;26.97;;;6.70;99.90;;;;;;5096458;28;20200;-88
2022/05/08 04:07:44;;;;;;;29.73;24.43;;;6.60;99.90;;;;;;5096503;28;20330;-89
2022/05/08 04:10:12;;;;;;;27.03;24.13;;;6.60;99.90;;;;;;5096507;28;20197;-90
2022/05/08 04:12:39;;;;;;;32.40;25.40;;;6.50;99.90;;;;;;5096430;28;20232;-89
2022/05/08 04:16:15;;;;;;;28.50;24.10;;;6.60;99.90;;;;;;5095937;28;20748;-89
2022/05/08 04:17:55;;;;;;;26.63;23.80;;;6.60;99.90;;;;;;5095947;28;20272;-90
2022/05/08 04:20:22;;;;;;;25.47;22.77;;;6.90;99.90;;;;;;5095897;28;20196;-87
2022/05/08 04:25:34;;;;;;;27.03;23.23;;;7.10;99.90;;;;;;5096039;28;20302;-88
2022/05/08 04:28:00;;;;;;;27.23;22.47;;;7.30;99.90;;;;;;5095877;28;20603;-88
2022/05/08 04:30:27;;;;;;;26.13;22.73;;;7.40;99.90;;;;;;5096050;28;20253;-87
2022/05/08 04:32:54;;;;;;;26.40;22.77;;;7.40;99.90;;;;;;5095606;28;20196;-89
2022/05/08 04:35:21;;;;;;;24.10;21.50;;;7.40;99.90;;;;;;5095550;28;20228;-88
2022/05/08 04:37:47;;;;;;;24.13;21.67;;;7.50;99.90;;;;;;5095494;28;20196;-89
2022/05/08 04:40:17;;;;;;;25.50;21.37;;;7.60;99.90;;;;;;5095349;28;20200;-88
2022/05/08 04:42:43;;;;;;;24.53;21.10;;;7.60;99.90;;;;;;5094985;28;20204;-88
2022/05/08 04:45:11;;;;;;;23.87;21.30;;;7.70;99.90;;;;;;5095738;28;20277;-89
2022/05/08 04:47:38;;;;;;;24.93;22.20;;;7.70;99.90;;;;;;5096380;28;20200;-88
2022/05/08 04:50:05;;;;;;;23.80;21.30;;;7.70;99.90;;;;;;5095082;28;20232;-88
2022/05/08 04:52:32;;;;;;;21.77;19.57;;;7.90;99.90;;;;;;5095686;28;20238;-88
2022/05/08 04:54:59;;;;;;;22.07;19.87;;;8.00;99.90;;;;;;5095615;28;20220;-87
2022/05/08 04:57:27;;;;;;;21.93;19.63;;;8.10;99.90;;;;;;5095999;28;20271;-89
2022/05/08 04:59:54;;;;;;;23.73;19.03;;;8.10;99.90;;;;;;5095379;28;20204;-89
2022/05/08 05:02:21;;;;;;;22.00;19.80;;;8.20;99.90;;;;;;5095305;28;20648;-88
2022/05/08 05:04:47;;;;;;;23.00;20.60;;;8.30;99.90;;;;;;5095253;28;20579;-88
2022/05/08 05:07:14;;;;;;;22.20;19.80;;;8.40;99.90;;;;;;5095079;28;20200;-88
2022/05/08 05:09:41;;;;;;;21.33;19.07;;;8.50;99.90;;;;;;5094814;28;20679;-87
2022/05/08 05:12:09;;;;;;;21.53;19.33;;;8.60;99.90;;;;;;5094774;28;20197;-88
2022/05/08 05:14:37;;;;;;;20.83;18.67;;;8.70;99.90;;;;;;5095445;28;20246;-88
2022/05/08 05:17:04;;;;;;;20.30;18.20;;;8.80;99.90;;;;;;5095071;28;20780;-88
2022/05/08 05:19:31;;;;;;;20.17;18.00;;;8.80;99.90;;;;;;5095093;28;20199;-88
2022/05/08 05:21:57;;;;;;;21.10;17.73;;;8.90;99.90;;;;;;5096080;28;20203;-88
2022/05/08 05:24:24;;;;;;;22.67;18.27;;;9.00;99.90;;;;;;5095205;28;20616;-88
2022/05/08 05:26:52;;;;;;;19.97;17.97;;;9.10;99.90;;;;;;5094756;28;20541;-88
2022/05/08 05:29:19;;;;;;;19.20;17.30;;;9.10;99.90;;;;;;5094824;28;20636;-87
2022/05/08 05:31:47;;;;;;;20.63;18.37;;;9.20;99.90;;;;;;5095626;28;20249;-88
2022/05/08 05:34:14;;;;;;;21.83;19.00;;;9.30;99.90;;;;;;5094697;28;20199;-88
2022/05/08 05:36:40;;;;;;;20.23;18.13;;;9.30;99.90;;;;;;5094462;28;20707;-88
2022/05/08 05:39:07;;;;;;;19.40;17.40;;;9.40;99.90;;;;;;5094982;28;20610;-87
2022/05/08 05:41:34;;;;;;;20.40;18.33;;;9.50;99.90;;;;;;5094527;28;20196;-87
2022/05/08 05:44:00;;;;;;;21.13;18.93;;;9.60;99.90;;;;;;5094348;28;20197;-87
2022/05/08 05:49:12;;;;;;;19.23;17.37;;;9.70;99.90;;;;;;5094176;28;20265;-87
2022/05/08 05:51:41;;;;;;;19.43;17.43;;;9.70;99.90;;;;;;5093522;28;20224;-87
2022/05/08 05:54:07;;;;;;;19.17;17.37;;;9.70;99.90;;;;;;5094768;28;20208;-87
2022/05/08 05:56:34;;;;;;;20.40;18.40;;;9.80;99.90;;;;;;5094034;28;20232;-87
2022/05/08 05:59:01;;;;;;;20.50;18.50;;;9.80;99.90;;;;;;5094015;28;20261;-87
2022/05/08 06:01:27;;;;;;;20.77;18.33;;;9.90;99.90;;;;;;5095555;28;20545;-85
2022/05/08 06:03:54;;;;;;;20.60;18.40;;;10.00;99.90;;;;;;5094326;28;20525;-86
2022/05/08 06:06:22;;;;;;;20.20;18.10;;;10.10;99.90;;;;;;5094286;28;20196;-87
2022/05/08 06:08:48;;;;;;;19.60;17.70;;;10.10;99.90;;;;;;5094216;28;20230;-86
2022/05/08 06:11:16;;;;;;;19.53;17.70;;;10.30;99.90;;;;;;5094064;28;20621;-86
2022/05/08 06:13:42;;;;;;;18.80;16.97;;;10.30;99.90;;;;;;5095255;28;20670;-86
2022/05/08 06:16:09;;;;;;;20.40;18.50;;;10.40;99.90;;;;;;5109780;28;20208;-86
2022/05/08 06:18:36;;;;;;;19.23;17.37;;;10.40;99.90;;;;;;5118798;28;20189;-85
2022/05/08 06:21:02;;;;;;;19.70;17.83;;;10.60;99.90;;;;;;5117953;28;20230;-86
2022/05/08 06:23:30;;;;;;;19.90;18.00;;;10.80;99.90;;;;;;5117560;28;20196;-85
2022/05/08 06:25:57;;;;;;;20.50;18.50;;;10.90;99.90;;;;;;5113580;28;20184;-84
2022/05/08 06:28:24;;;;;;;18.93;16.97;;;11.10;99.90;;;;;;5117936;28;20265;-85
2022/05/08 06:30:50;;;;;;;19.53;17.53;;;11.20;99.90;;;;;;5118233;28;20184;-85
2022/05/08 06:33:18;;;;;;;19.70;17.60;;;11.40;99.90;;;;;;5095528;28;20196;-85
2022/05/08 06:35:44;;;;;;;18.53;16.80;;;11.60;99.90;;;;;;5093900;28;20603;-86
2022/05/08 06:38:12;;;;;;;18.67;16.87;;;11.70;99.90;;;;;;5094662;28;20197;-85
2022/05/08 06:40:41;;;;;;;18.30;16.43;;;11.90;99.90;;;;;;5095743;28;20258;-85
2022/05/08 06:43:08;;;;;;;19.10;16.53;;;12.10;99.90;;;;;;5093256;28;20245;-84
2022/05/08 06:45:36;;;;;;;18.23;16.57;;;12.30;99.90;;;;;;5093138;28;20203;-85
2022/05/08 06:48:02;;;;;;;18.00;16.30;;;12.50;99.90;;;;;;5092686;28;20208;-85
2022/05/08 06:50:30;;;;;;;16.67;15.17;;;12.60;99.90;;;;;;5093011;28;20224;-85
2022/05/08 06:52:56;;;;;;;16.77;15.07;;;12.80;99.90;;;;;;5092889;28;20330;-84
2022/05/08 06:55:23;;;;;;;23.27;20.93;;;13.10;99.90;;;;;;5093040;28;20220;-84
2022/05/08 06:57:51;;;;;;;17.30;15.63;;;13.50;99.90;;;;;;5093226;28;20196;-83
2022/05/08 07:03:04;;;;;;;17.53;15.73;;;14.20;99.90;;;;;;5096609;28;20195;-83
2022/05/08 07:05:31;;;;;;;15.43;14.00;;;14.50;99.90;;;;;;5096955;28;20287;-83
2022/05/08 07:07:58;;;;;;;15.60;14.10;;;14.80;99.90;;;;;;5079301;28;20200;-83
2022/05/08 07:10:24;;;;;;;14.57;13.17;;;15.10;99.90;;;;;;5097165;28;20240;-83
2022/05/08 07:12:52;;;;;;;14.33;13.03;;;15.20;99.90;;;;;;5097311;28;20655;-83
2022/05/08 07:15:19;;;;;;;14.50;13.20;;;15.40;99.90;;;;;;5096885;28;20241;-83
2022/05/08 07:17:46;;;;;;;13.93;12.73;;;15.50;99.90;;;;;;5096790;28;20196;-83
2022/05/08 07:20:13;;;;;;;13.73;12.35;;;15.70;99.90;;;;;;5097041;28;20200;-83
2022/05/08 07:22:39;;;;;;;14.40;13.00;;;15.80;99.90;;;;;;5097012;28;20250;-81
2022/05/08 07:25:07;;;;;;;12.82;11.57;;;16.00;99.90;;;;;;5097302;28;20196;-82
2022/05/08 07:27:36;;;;;;;13.60;12.23;;;16.10;99.90;;;;;;5097368;28;20196;-83
2022/05/08 07:30:05;;;;;;;11.90;10.80;;;16.30;99.90;;;;;;5096992;28;20201;-82
2022/05/08 07:32:31;;;;;;;11.07;9.95;;;16.40;99.90;;;;;;5097394;28;20196;-82
2022/05/08 07:37:43;;;;;;;11.80;10.70;;;16.40;99.90;;;;;;5098969;28;20191;-83
2022/05/08 07:40:11;;;;;;;10.93;9.93;;;16.60;99.90;;;;;;5103858;28;20196;-82
2022/05/08 07:42:38;;;;;;;12.15;11.00;;;16.80;99.90;;;;;;5105193;28;20329;-81
2022/05/08 07:45:07;;;;;;;15.75;11.00;;;17.00;99.90;;;;;;5102067;28;20196;-82
2022/05/08 07:47:34;;;;;;;12.18;11.02;;;17.10;99.90;;;;;;5096963;28;20254;-82
2022/05/08 07:50:01;;;;;;;11.07;9.98;;;17.20;99.90;;;;;;5096916;28;20655;-82
2022/05/08 07:52:28;;;;;;;11.27;10.15;;;17.40;99.90;;;;;;5097551;28;20197;-83
2022/05/08 07:54:55;;;;;;;11.75;10.55;;;17.70;99.90;;;;;;5098378;28;20202;-84
2022/05/08 07:57:21;;;;;;;11.32;10.20;;;18.10;99.90;;;;;;5097404;28;20224;-84
2022/05/08 07:59:49;;;;;;;14.38;13.00;;;18.40;99.90;;;;;;5097577;28;20644;-84
2022/05/08 08:02:17;;;;;;;12.55;11.23;;;18.70;99.90;;;;;;5096945;28;20222;-82
2022/05/08 08:04:44;;;;;;;12.07;10.98;;;18.80;99.90;;;;;;5096033;28;20196;-83
2022/05/08 08:07:11;;;;;;;11.65;10.55;;;18.80;99.90;;;;;;5095995;28;20197;-81
2022/05/08 08:09:37;;;;;;;11.55;10.48;;;18.80;99.90;;;;;;5096022;28;20196;-83
2022/05/08 08:12:05;;;;;;;10.82;9.73;;;18.80;99.90;;;;;;5096075;28;20242;-83
2022/05/08 08:14:31;;;;;;;10.13;9.23;;;18.90;99.90;;;;;;5095545;28;20192;-83
2022/05/08 08:16:58;;;;;;;11.00;9.90;;;19.10;99.90;;;;;;5096579;28;20246;-81
2022/05/08 08:19:26;;;;;;;11.05;10.05;;;19.10;99.90;;;;;;5095499;28;20564;-81
2022/05/08 08:21:53;;;;;;;11.20;9.38;;;19.10;99.90;;;;;;5096102;28;20207;-83
2022/05/08 08:24:20;;;;;;;10.85;9.85;;;19.30;99.90;;;;;;5095692;28;20297;-82
2022/05/08 08:26:46;;;;;;;9.98;9.05;;;19.20;99.90;;;;;;5095466;28;20200;-82
2022/05/08 08:29:14;;;;;;;10.02;9.15;;;19.40;99.90;;;;;;5096006;28;20721;-82
2022/05/08 08:31:40;;;;;;;10.40;9.40;;;19.50;99.90;;;;;;5095815;28;20200;-82
2022/05/08 08:34:07;;;;;;;11.27;10.27;;;19.70;99.90;;;;;;5095469;28;20204;-82
2022/05/08 08:36:36;;;;;;;10.98;9.35;;;19.70;99.90;;;;;;5095642;28;20220;-83
2022/05/08 08:39:02;;;;;;;10.20;9.30;;;20.00;99.90;;;;;;5095719;28;20212;-83
2022/05/08 08:41:35;;;;;;;9.20;8.32;;;20.20;99.90;;;;;;5095522;28;20200;-81
2022/05/08 08:49:51;;;;;;;10.68;8.68;;;20.70;93.70;;;;;;5032636;28;20650;-83
2022/05/08 08:52:22;;;;;;;9.25;8.35;;;21.00;92.50;;;;;;5082511;28;20524;-83
2022/05/08 08:54:49;;;;;;;9.95;8.38;;;21.20;92.40;;;;;;5095682;28;20643;-83
2022/05/08 08:57:16;;;;;;;8.60;7.85;;;21.30;90.00;;;;;;5094916;28;20290;-83
2022/05/08 08:59:42;;;;;;;8.32;7.53;;;21.30;82.90;;;;;;5094662;28;20594;-83
2022/05/08 09:02:16;;;;;;;9.50;8.13;;;21.40;81.50;;;;;;5094694;28;20455;-82
2022/05/08 09:04:44;;;;;;;12.52;8.23;;;21.40;82.00;;;;;;5094925;28;20196;-83
2022/05/08 09:07:38;;;;;;;9.23;8.18;;;21.70;80.80;;;;;;5094722;28;20648;-83
2022/05/08 09:10:23;;;;;;;8.10;7.40;;;21.90;77.00;;;;;;5094584;28;20231;-82
2022/05/08 09:13:05;;;;;;;10.85;7.63;;;22.00;71.30;;;;;;5094759;28;20612;-82
2022/05/08 09:15:32;;;;;;;7.63;6.93;;;22.10;70.40;;;;;;5094598;28;20258;-82
2022/05/08 09:18:01;;;;;;;9.40;8.30;;;22.20;66.40;;;;;;5094590;28;20199;-82
2022/05/08 09:20:33;;;;;;;11.85;7.05;;;22.30;64.90;;;;;;5094604;28;20199;-83
2022/05/08 09:23:08;;;;;;;7.53;6.82;;;22.40;67.10;;;;;;5094502;28;20594;-82
2022/05/08 09:25:46;;;;;;;7.97;7.20;;;22.80;62.50;;;;;;5094446;28;20210;-80
2022/05/08 09:28:15;;;;;;;7.68;6.97;;;23.10;58.20;;;;;;5094459;28;20269;-81
2022/05/08 09:30:55;;;;;;;7.18;6.50;;;23.00;55.90;;;;;;5093906;28;20721;-81
2022/05/08 09:33:24;;;;;;;8.10;7.28;;;23.20;55.50;;;;;;5094447;28;20196;-81
2022/05/08 09:35:51;;;;;;;7.53;6.68;;;22.90;55.00;;;;;;5095206;28;20224;-82
2022/05/08 09:38:19;;;;;;;9.20;6.93;;;22.90;52.80;;;;;;5094256;28;20697;-82
2022/05/08 09:40:46;;;;;;;7.35;6.68;;;22.90;54.50;;;;;;5094505;28;20200;-82
2022/05/08 09:43:27;;;;;;;7.85;7.05;;;22.90;53.80;;;;;;5094834;28;20192;-82
2022/05/08 09:45:57;;;;;;;7.55;6.65;;;23.10;53.10;;;;;;5095022;28;20655;-81
2022/05/08 09:48:26;;;;;;;8.43;6.93;;;23.30;52.40;;;;;;5114548;28;20240;-80
2022/05/08 09:50:56;;;;;;;8.23;7.15;;;23.40;51.90;;;;;;5116147;28;20232;-81
2022/05/08 09:53:25;;;;;;;8.27;7.57;;;23.60;52.30;;;;;;5118230;28;20173;-82
2022/05/08 09:55:53;;;;;;;8.05;7.35;;;23.70;51.20;;;;;;5115401;28;20266;-82
2022/05/08 09:58:20;;;;;;;6.53;6.03;;;23.80;50.90;;;;;;5117636;28;20200;-82
2022/05/08 10:00:47;;;;;;;7.53;6.68;;;24.00;49.30;;;;;;5099384;28;20197;-82
2022/05/08 10:03:15;;;;;;;6.40;5.90;;;24.10;47.20;;;;;;5094506;28;20246;-80
2022/05/08 10:05:42;;;;;;;7.35;6.65;;;24.40;46.10;;;;;;5093961;28;20192;-82
2022/05/08 10:08:10;;;;;;;7.05;6.35;;;24.50;45.10;;;;;;5117564;28;20185;-81
2022/05/08 10:13:57;;;;;;;7.38;6.60;;;24.90;43.90;;;;;;5074935;28;20249;-81
2022/05/08 10:16:53;;;;;;;7.00;6.40;;;25.20;44.10;;;;;;5116770;28;20263;-79
2022/05/08 10:19:47;;;;;;;9.90;6.25;;;25.30;43.50;;;;;;5109196;28;20640;-81
2022/05/08 10:22:15;;;;;;;10.27;5.40;;;26.20;42.10;;;;;;5093825;28;20200;-80
2022/05/08 10:24:46;;;;;;;8.93;6.15;;;26.80;40.60;;;;;;5093583;28;20196;-80
2022/05/08 10:27:16;;;;;;;7.07;6.47;;;27.60;39.40;;;;;;5093681;28;20196;-81
2022/05/08 10:29:44;;;;;;;6.03;5.53;;;27.60;36.30;;;;;;5093636;28;20196;-81
2022/05/08 10:32:13;;;;;;;5.88;5.35;;;28.20;36.70;;;;;;5093915;28;20203;-81
2022/05/08 10:34:40;;;;;;;6.43;5.18;;;29.10;33.90;;;;;;5093372;28;20196;-80
2022/05/08 10:37:28;;;;;;;4.75;4.32;;;28.70;31.20;;;;;;5092627;28;20268;-80
2022/05/08 10:39:55;;;;;;;7.28;4.80;;;28.80;28.50;;;;;;5093120;28;20196;-80
2022/05/08 10:42:44;;;;;;;5.22;4.68;;;28.70;28.50;;;;;;5093480;28;20203;-81
2022/05/08 10:45:42;;;;;;;6.32;5.50;;;28.50;27.70;;;;;;5093349;28;20199;-80
2022/05/08 10:48:11;;;;;;;5.75;5.13;;;28.00;28.80;;;;;;5093153;28;20655;-82
2022/05/08 10:50:39;;;;;;;10.25;5.20;;;27.70;27.70;;;;;;5071622;28;20237;-82
2022/05/08 10:53:06;;;;;;;5.95;4.38;;;27.40;27.60;;;;;;5072940;28;20205;-81
2022/05/08 10:55:33;;;;;;;4.72;4.22;;;27.70;28.00;;;;;;5073231;28;20284;-81
2022/05/08 10:58:01;;;;;;;5.85;4.68;;;27.90;27.60;;;;;;5072840;28;20221;-80
2022/05/08 11:00:30;;;;;;;4.68;4.28;;;27.80;27.90;;;;;;5073057;28;20197;-82
2022/05/08 11:02:58;;;;;;;5.28;4.25;;;27.60;27.50;;;;;;5073052;28;20706;-80
2022/05/08 11:05:26;;;;;;;5.35;4.82;;;27.60;27.30;;;;;;5072923;28;20219;-81
2022/05/08 11:07:54;;;;;;;5.20;4.70;;;27.70;26.80;;;;;;5073051;28;20201;-81
2022/05/08 11:10:24;;;;;;;5.00;4.50;;;27.10;25.50;;;;;;5073006;28;20204;-80
2022/05/08 11:12:59;;;;;;;7.15;5.30;;;27.20;26.40;;;;;;5072670;28;20197;-80
2022/05/08 11:15:28;;;;;;;6.45;4.82;;;27.50;26.30;;;;;;5072589;28;20196;-80
2022/05/08 11:18:06;;;;;;;5.93;4.80;;;27.80;26.70;;;;;;5073025;28;20319;-81
2022/05/08 11:20:36;;;;;;;7.45;5.00;;;28.30;26.30;;;;;;5072701;28;20231;-80
2022/05/08 11:23:03;;;;;;;5.18;4.68;;;29.00;25.20;;;;;;5072732;28;20205;-82
2022/05/08 11:25:30;;;;;;;5.22;4.70;;;29.30;24.50;;;;;;5072672;28;20653;-82
2022/05/08 11:27:58;;;;;;;8.68;4.10;;;30.20;24.00;;;;;;5072356;28;20201;-80
2022/05/08 11:30:30;;;;;;;4.35;3.95;;;30.80;24.00;;;;;;5072954;28;20287;-81
2022/05/08 11:36:05;;;;;;;5.28;4.00;;;32.00;21.50;;;;;;5072678;28;20191;-81
2022/05/08 11:38:42;;;;;;;4.68;4.05;;;32.30;20.90;;;;;;5072426;28;20687;-81
2022/05/08 11:41:10;;;;;;;6.18;4.43;;;32.50;19.60;;;;;;5072794;28;20201;-81
2022/05/08 11:43:38;;;;;;;4.95;4.05;;;31.80;19.30;;;;;;5072277;28;20674;-81
2022/05/08 11:46:07;;;;;;;6.00;4.28;;;31.70;19.20;;;;;;5072358;28;20703;-80
2022/05/08 11:48:37;;;;;;;4.70;3.45;;;31.40;19.50;;;;;;5072997;28;20207;-81
2022/05/08 11:51:04;;;;;;;4.53;3.38;;;32.10;18.70;;;;;;5076225;28;20318;-80
2022/05/08 11:53:39;;;;;;;4.03;3.63;;;33.20;17.60;;;;;;5076031;28;20246;-80
2022/05/08 11:56:21;;;;;;;5.38;3.38;;;33.30;16.60;;;;;;5057936;28;20683;-80
2022/05/08 11:58:48;;;;;;;3.60;3.30;;;33.50;15.70;;;;;;5075763;28;20200;-80
2022/05/08 12:01:23;;;;;;;6.75;3.40;;;33.20;15.20;;;;;;5075913;28;20200;-81
2022/05/08 12:03:50;;;;;;;3.78;3.08;;;33.70;15.10;;;;;;5075989;28;20257;-82
2022/05/08 12:06:16;;;;;;;4.72;3.03;;;33.50;14.60;;;;;;5075756;28;20246;-81
2022/05/08 12:08:43;;;;;;;4.25;3.50;;;33.30;14.40;;;;;;5075460;28;20598;-80
2022/05/08 12:11:28;;;;;;;3.58;3.25;;;33.00;15.00;;;;;;5075530;28;20196;-81
2022/05/08 12:14:03;;;;;;;7.65;3.60;;;32.50;14.70;;;;;;5075444;28;20200;-81
2022/05/08 12:16:32;;;;;;;5.13;3.78;;;31.30;15.80;;;;;;5075423;28;20204;-79
2022/05/08 12:19:18;;;;;;;4.65;3.60;;;30.30;16.60;;;;;;5075427;28;20196;-81
2022/05/08 12:21:46;;;;;;;4.65;3.53;;;30.10;16.80;;;;;;5075385;28;20280;-80
2022/05/08 12:24:14;;;;;;;4.00;3.70;;;30.00;16.40;;;;;;5075105;28;20253;-80
2022/05/08 12:26:42;;;;;;;4.70;3.60;;;29.60;17.10;;;;;;5075363;28;20671;-80
2022/05/08 12:29:16;;;;;;;4.35;3.60;;;29.40;17.30;;;;;;5057773;28;20247;-81
2022/05/08 12:31:44;;;;;;;3.90;3.60;;;29.10;17.60;;;;;;5075402;28;20254;-81
2022/05/08 12:34:12;;;;;;;4.10;3.50;;;28.70;17.40;;;;;;5075166;28;20197;-80
2022/05/08 12:36:41;;;;;;;4.00;3.60;;;28.60;18.30;;;;;;5074987;28;20235;-81
2022/05/08 12:39:09;;;;;;;4.43;3.80;;;28.80;18.30;;;;;;5075857;28;20197;-81
2022/05/08 12:41:36;;;;;;;5.45;4.20;;;29.40;17.60;;;;;;5075182;28;20254;-81
2022/05/08 12:44:04;;;;;;;6.20;3.95;;;29.90;18.20;;;;;;5077017;28;20193;-82
2022/05/08 12:46:31;;;;;;;5.70;3.50;;;29.70;17.60;;;;;;5078448;28;20197;-82
2022/05/08 12:49:02;;;;;;;6.72;4.05;;;30.30;18.20;;;;;;5079112;28;20192;-82
2022/05/08 12:51:29;;;;;;;4.18;3.78;;;31.70;15.90;;;;;;5076133;28;20357;-80
2022/05/08 12:53:57;;;;;;;4.95;3.75;;;33.20;15.00;;;;;;5075353;28;20199;-79
2022/05/08 12:56:25;;;;;;;5.75;3.50;;;34.40;14.70;;;;;;5074904;28;20258;-80
2022/05/08 13:01:35;;;;;;;3.67;3.35;;;33.90;13.80;;;;;;5075947;28;20315;-80
2022/05/08 13:04:05;;;;;;;4.30;3.35;;;35.10;13.30;;;;;;5074598;28;20197;-80
2022/05/08 13:06:32;;;;;;;3.78;3.47;;;34.60;12.60;;;;;;5074762;28;20334;-81
2022/05/08 13:08:58;;;;;;;6.45;3.67;;;32.80;13.40;;;;;;5074508;28;20200;-81
2022/05/08 13:11:25;;;;;;;5.43;3.60;;;31.50;15.10;;;;;;5074682;28;20203;-81
2022/05/08 13:13:52;;;;;;;6.55;3.40;;;30.80;15.80;;;;;;5074805;28;20201;-82
2022/05/08 13:16:18;;;;;;;4.45;3.70;;;30.10;16.60;;;;;;5074304;28;20254;-81
2022/05/08 13:18:45;;;;;;;7.43;4.45;;;29.90;17.10;;;;;;5074881;28;20254;-81